Airfield :
LOGIN :

Register | Disclaimer

   EN    FR    IT 

 










Legend :    VFR   Marginal VFR   IFR   Intensive IFR   Very Intensive IFR
Visi :
Ceiling :
>= 8 km
>= 3000ft
5 to 8 km
1000 to 3000 ft
1500m to 5 km
500 to 1000 ft
800 to 1500m
200 to 500 ft
< 800m
< 200 ft
Symbols :   Thunderstorms  Fog  Heavy snow  Heavy precipitations  Wind > 20 kt
SIGMETs :     Misc.  Thunderstorms  Icing  Turbulence  Mountain Waves  Volcanic Ashes






- Airport Elevation : 681 ft
- IATA code : LBA


EGNM - Leeds Bradford

CURRENT METAR :
  • 280620Z 13003KT CAVOK 01/M01 Q1007

EXPIRED METARs :
  • 280550Z 18005KT 140V220 CAVOK 02/M00 Q1008
  • 280520Z 22009KT CAVOK 02/M00 Q1008
  • 280450Z 21006KT CAVOK 02/M00 Q1008
  • 280420Z 22009KT CAVOK 02/M01 Q1009
  • 280350Z 22007KT CAVOK 01/M01 Q1009
  • 280320Z 22008KT CAVOK 02/M00 Q1009

TAF TAF EGNM
Valid from the 28 at 06:00 until the 29 at 06:00 UTC


280456Z 2806/2906 21008KT 9999 FEW020
BECMG 2809/2812 15012KT BKN005
TEMPO 2809/2823 8000 -RA
PROB30
TEMPO 2809/2814 2000 RASN BKN002
PROB30
TEMPO 2812/2817 15016G26KT
PROB40
TEMPO 2814/2818 4000 RADZ BKN004
BECMG 2817/2820 23015G25KT BKN012
BECMG 2822/2901 17016G26KT
TEMPO 2823/2906 4000 RA BKN008
PROB30
TEMPO 2904/2906 19024G38KT +RA
ATIS : +44 113 250 9696 (x2489)



MET'MAP, your aeronautical weather chart ! - Copyright ORBIFLY December 2007 - Disclaimer

ORBIFLY MET'MAP TEAM :

Programming & Development : Alexandra Zaïnal
Concept & original design : Baudouin d'Aumeries
Assistance for programming : Marc-Olivier Méhu
Technical & hardware support : Manuel Goepfert

Contact : metmap@orbifly.com




SOURCES & CREDITS :

   NOAA